Arkansas Post National Memor, Arkansas
Current Conditions -  °F | °C
As of 10:53 PM on Saturday 25 Oct 2014 (Local Time) from KPBF Reporting Station
Haze Haze  
Wind Chill: 65°   Ceiling: Unl
Heat Index: 65°   Visibility: 5mi
Dew Point: 63°   Wind: 0mph
Humidity: 93%   Direction: NA
Pressure: 30.04"   Gusts: NA
Location:  34.1564°N, 91.3915°W
Report Text: KPBF 260353Z AUTO 00000KT 5SM BR CLR 18/17 A3004 RMK AO2 SLP171 T01830172
Loading
Personal Weather Stations






























Interactive Weather Map
Tropical Storm Tracking
New forecast layout! Learn more

10-Day Weather Forecast

Advertisements
Track Severe Weather on mobile